Time;durP1;ratioP1;P1;durP2;ratioP2;P2;SDS_P1;SDS_P2;PMS_P1;PMS_P2;Temp;Humidity;BMP_temperature;BMP_pressure;BME280_temperature;BME280_humidity;BME280_pressure;Samples;Min_cycle;Max_cycle;Signal;HPM_P1;HPM_P2
2023/08/27 00:02:00;;;;;;;;;;;;;;;13.02;100.00;100908.22;4951570;28;19934;-83
2023/08/27 00:04:46;;;;;;;;;;;;;;;13.00;100.00;100907.41;4952307;28;19930;-82
2023/08/27 00:07:31;;;;;;;;;;;;;;;12.98;100.00;100909.31;4941171;28;20376;-82
2023/08/27 00:10:17;;;;;;;;;;;;;;;12.96;100.00;100900.56;4955214;28;19938;-83
2023/08/27 00:13:03;;;;;;;;;;;;;;;12.96;100.00;100895.25;4965576;28;20305;-83
2023/08/27 00:15:48;;;;;;;;;;;;;;;12.95;100.00;100896.19;4961657;28;19934;-82
2023/08/27 00:18:37;;;;;;;;;;;;;;;12.94;100.00;100897.13;4983558;28;20024;-82
2023/08/27 00:21:22;;;;;;;;;;;;;;;12.94;100.00;100887.38;4955138;28;19934;-82
2023/08/27 00:24:08;;;;;;;;;;;;;;;12.94;100.00;100886.50;4953151;28;19930;-82
2023/08/27 00:26:54;;;;;;;;;;;;;;;12.95;100.00;100882.88;4967548;28;19956;-81
2023/08/27 00:29:40;;;;;;;;;;;;;;;12.95;100.00;100888.19;4964367;28;19950;-81
2023/08/27 00:32:28;;;;;;;;;;;;;;;12.96;100.00;100884.63;4946988;28;20482;-82
2023/08/27 00:35:13;;;;;;;;;;;;;;;12.97;100.00;100886.34;4964940;28;19959;-83
2023/08/27 00:37:59;;;;;;;;;;;;;;;12.98;100.00;100893.38;4961257;28;20289;-82
2023/08/27 00:40:45;;;;;;;;;;;;;;;13.00;100.00;100889.69;4969214;28;19983;-82
2023/08/27 00:43:30;;;;;;;;;;;;;;;13.00;100.00;100888.81;4963907;28;20407;-82
2023/08/27 00:46:16;;;;;;;;;;;;;;;13.03;100.00;100896.63;4963623;28;20136;-82
2023/08/27 00:49:01;;;;;;;;;;;;;;;13.03;100.00;100896.63;4963921;28;20031;-83
2023/08/27 00:51:47;;;;;;;;;;;;;;;13.03;100.00;100904.63;4948502;28;19925;-82
2023/08/27 00:54:33;;;;;;;;;;;;;;;12.99;100.00;100901.25;4949059;28;19968;-83
2023/08/27 00:57:18;;;;;;;;;;;;;;;12.97;100.00;100899.63;4965022;28;20024;-83
2023/08/27 01:00:07;;;;;;;;;;;;;;;12.92;100.00;100899.00;4960578;28;19929;-83
2023/08/27 01:02:54;;;;;;;;;;;;;;;12.88;100.00;100904.50;4931378;28;20068;-83
2023/08/27 01:05:40;;;;;;;;;;;;;;;12.86;100.00;100910.84;4938573;28;19954;-82
2023/08/27 01:08:41;;;;;;;;;;;;;;;12.83;100.00;100906.56;4988852;28;19933;-83
2023/08/27 01:11:45;;;;;;;;;;;;;;;12.83;100.00;100905.69;4965263;28;19987;-84
2023/08/27 01:14:32;;;;;;;;;;;;;;;12.83;100.00;100908.34;4947393;28;20392;-82
2023/08/27 01:17:19;;;;;;;;;;;;;;;12.81;100.00;100897.78;4967833;28;19936;-83
2023/08/27 01:20:09;;;;;;;;;;;;;;;12.79;100.00;100894.38;4952300;28;20351;-83
2023/08/27 01:22:55;;;;;;;;;;;;;;;12.76;100.00;100898.03;4953130;28;20333;-83
2023/08/27 01:25:45;;;;;;;;;;;;;;;12.74;100.00;100891.97;4952379;28;20304;-83
2023/08/27 01:28:32;;;;;;;;;;;;;;;12.74;100.00;100891.97;4965477;28;19991;-83
2023/08/27 01:31:19;;;;;;;;;;;;;;;12.76;100.00;100883.91;4952375;28;19938;-83
2023/08/27 01:34:05;;;;;;;;;;;;;;;12.78;100.00;100871.41;4947759;28;19944;-83
2023/08/27 01:36:51;;;;;;;;;;;;;;;12.80;100.00;100874.81;4960503;28;20029;-83
2023/08/27 01:39:37;;;;;;;;;;;;;;;12.83;100.00;100866.69;4956405;28;19937;-83
2023/08/27 01:42:22;;;;;;;;;;;;;;;12.85;100.00;100856.00;4955469;28;19930;-84
2023/08/27 01:45:09;;;;;;;;;;;;;;;12.88;100.00;100843.41;4954971;28;19940;-83
2023/08/27 01:47:55;;;;;;;;;;;;;;;12.90;100.00;100848.59;4966891;28;19930;-84
2023/08/27 01:50:40;;;;;;;;;;;;;;;12.93;100.00;100844.94;4962838;28;20135;-84
2023/08/27 01:53:26;;;;;;;;;;;;;;;12.94;100.00;100836.00;4965674;28;19930;-84
2023/08/27 01:56:11;;;;;;;;;;;;;;;12.95;100.00;100829.75;4968672;28;19931;-84
2023/08/27 01:58:57;;;;;;;;;;;;;;;12.94;100.00;100825.38;4961501;28;19932;-84
2023/08/27 02:01:43;;;;;;;;;;;;;;;12.92;100.00;100821.97;4956755;28;19937;-84
2023/08/27 02:04:29;;;;;;;;;;;;;;;12.91;100.00;100818.44;4956620;28;19987;-83
2023/08/27 02:07:14;;;;;;;;;;;;;;;12.90;100.00;100819.38;4969283;28;19959;-84
2023/08/27 02:10:00;;;;;;;;;;;;;;;12.88;100.00;100819.50;4968423;28;20296;-84
2023/08/27 02:12:46;;;;;;;;;;;;;;;12.86;100.00;100817.84;4969178;28;19930;-84
2023/08/27 02:15:34;;;;;;;;;;;;;;;12.83;100.00;100813.56;4968935;28;20024;-84
2023/08/27 02:18:20;;;;;;;;;;;;;;;12.82;100.00;100811.00;4969447;28;20368;-84
2023/08/27 02:21:05;;;;;;;;;;;;;;;12.79;100.00;100811.16;4949954;28;20348;-84
2023/08/27 02:23:51;;;;;;;;;;;;;;;12.78;100.00;100812.97;4969979;28;20020;-83
2023/08/27 02:26:37;;;;;;;;;;;;;;;12.76;100.00;100794.44;4941390;28;19937;-83
2023/08/27 02:29:22;;;;;;;;;;;;;;;12.75;100.00;100799.84;4958023;28;19940;-84
2023/08/27 02:32:08;;;;;;;;;;;;;;;12.73;100.00;100805.25;4969824;28;20419;-85
2023/08/27 02:34:54;;;;;;;;;;;;;;;12.72;100.00;100800.88;4969685;28;19930;-84
2023/08/27 02:37:41;;;;;;;;;;;;;;;12.72;100.00;100803.53;4968365;28;20365;-84
2023/08/27 02:40:26;;;;;;;;;;;;;;;12.72;100.00;100792.03;4967822;28;19941;-83
2023/08/27 02:43:12;;;;;;;;;;;;;;;12.73;100.00;100799.06;4969106;28;19934;-83
2023/08/27 02:45:58;;;;;;;;;;;;;;;12.70;100.00;100799.25;4949494;28;20418;-83
2023/08/27 02:48:44;;;;;;;;;;;;;;;12.68;100.00;100798.50;4968116;28;19936;-82
2023/08/27 02:51:29;;;;;;;;;;;;;;;12.66;100.00;100803.00;4950100;28;19933;-83
2023/08/27 02:54:15;;;;;;;;;;;;;;;12.64;100.00;100805.72;4955201;28;19930;-83
2023/08/27 02:57:01;;;;;;;;;;;;;;;12.62;100.00;100803.19;4957245;28;19930;-84
2023/08/27 02:59:47;;;;;;;;;;;;;;;12.62;100.00;100802.31;4955077;28;19941;-82
2023/08/27 03:02:33;;;;;;;;;;;;;;;12.61;100.00;100804.13;4967638;28;19956;-82
2023/08/27 03:05:18;;;;;;;;;;;;;;;12.60;100.00;100804.22;4967345;28;19937;-81
2023/08/27 03:08:04;;;;;;;;;;;;;;;12.59;100.00;100798.03;4970022;28;19926;-82
2023/08/27 03:10:50;;;;;;;;;;;;;;;12.60;100.00;100785.63;4965643;28;19929;-83
2023/08/27 03:13:36;;;;;;;;;;;;;;;12.58;100.00;100780.38;4954204;28;20332;-83
2023/08/27 03:16:21;;;;;;;;;;;;;;;12.60;100.00;100793.59;4966757;28;19927;-83
2023/08/27 03:19:07;;;;;;;;;;;;;;;12.60;100.00;100786.47;4966167;28;20062;-84
2023/08/27 03:21:52;;;;;;;;;;;;;;;12.59;100.00;100795.38;4962454;28;19945;-83
2023/08/27 03:24:38;;;;;;;;;;;;;;;12.61;100.00;100806.78;4963130;28;19933;-83
2023/08/27 03:27:24;;;;;;;;;;;;;;;12.62;100.00;100803.19;4947985;28;19942;-83
2023/08/27 03:30:10;;;;;;;;;;;;;;;12.63;100.00;100794.28;4954400;28;20320;-83
2023/08/27 03:32:55;;;;;;;;;;;;;;;12.67;100.00;100800.28;4941055;28;19930;-83
2023/08/27 03:35:41;;;;;;;;;;;;;;;12.70;100.00;100793.94;5019237;28;20279;-84
2023/08/27 03:38:27;;;;;;;;;;;;;;;12.72;100.00;100792.03;4936855;28;19934;-83
2023/08/27 03:41:12;;;;;;;;;;;;;;;12.75;100.00;100792.72;4946413;28;19936;-83
2023/08/27 03:43:58;;;;;;;;;;;;;;;12.79;100.00;100784.59;4944275;28;20342;-84
2023/08/27 03:46:44;;;;;;;;;;;;;;;12.81;100.00;100786.22;4956501;28;19930;-84
2023/08/27 03:49:30;;;;;;;;;;;;;;;12.84;100.00;100786.06;4952668;28;19930;-83
2023/08/27 03:52:15;;;;;;;;;;;;;;;12.88;100.00;100786.72;4936307;28;19926;-83
2023/08/27 03:55:01;;;;;;;;;;;;;;;12.89;100.00;100785.78;4964848;28;20920;-83
2023/08/27 03:57:49;;;;;;;;;;;;;;;12.92;100.00;100784.75;4945115;28;19953;-84
2023/08/27 04:00:38;;;;;;;;;;;;;;;12.93;100.00;100774.06;4949522;28;20055;-83
2023/08/27 04:03:24;;;;;;;;;;;;;;;12.95;100.00;100777.47;4946329;28;20039;-83
2023/08/27 04:06:12;;;;;;;;;;;;;;;12.96;100.00;100770.38;4950355;28;20483;-83
2023/08/27 04:09:01;;;;;;;;;;;;;;;12.96;100.00;100771.22;4952438;28;19948;-84
2023/08/27 04:11:46;;;;;;;;;;;;;;;12.97;100.00;100770.25;4960843;28;19972;-84
2023/08/27 04:14:32;;;;;;;;;;;;;;;12.96;100.00;100765.91;4968091;28;19932;-83
2023/08/27 04:17:17;;;;;;;;;;;;;;;12.96;100.00;100755.28;4946048;28;19930;-84
2023/08/27 04:20:03;;;;;;;;;;;;;;;12.96;100.00;100754.44;4963433;28;20017;-84
2023/08/27 04:22:51;;;;;;;;;;;;;;;12.96;100.00;100757.94;4946484;28;20385;-83
2023/08/27 04:25:37;;;;;;;;;;;;;;;12.96;100.00;100757.09;4935371;28;20066;-83
2023/08/27 04:28:23;;;;;;;;;;;;;;;12.94;100.00;100759.81;4947973;28;19938;-84
2023/08/27 04:31:09;;;;;;;;;;;;;;;12.94;100.00;100764.25;4962343;28;19930;-83
2023/08/27 04:33:54;;;;;;;;;;;;;;;12.94;100.00;100780.22;4967640;28;20028;-83
2023/08/27 04:36:40;;;;;;;;;;;;;;;12.94;100.00;100775.75;4967172;28;19936;-82
2023/08/27 04:39:26;;;;;;;;;;;;;;;12.94;100.00;100775.75;4939900;28;19936;-83
2023/08/27 04:42:12;;;;;;;;;;;;;;;12.93;100.00;100759.91;4965196;28;19936;-83
2023/08/27 04:44:58;;;;;;;;;;;;;;;12.95;100.00;100769.50;4950099;28;19952;-83
2023/08/27 04:47:44;;;;;;;;;;;;;;;12.96;100.00;100767.72;4949296;28;19924;-84
2023/08/27 04:50:29;;;;;;;;;;;;;;;12.98;100.00;100771.13;4965228;28;19925;-84
2023/08/27 04:53:15;;;;;;;;;;;;;;;13.00;100.00;100764.78;4951395;27;20404;-84
2023/08/27 04:56:01;;;;;;;;;;;;;;;13.04;100.00;100765.47;4968620;28;20083;-84
2023/08/27 04:58:49;;;;;;;;;;;;;;;13.04;100.00;100765.47;4973245;28;19949;-84
2023/08/27 05:01:35;;;;;;;;;;;;;;;13.06;100.00;100765.38;4950604;28;20282;-83
2023/08/27 05:04:21;;;;;;;;;;;;;;;13.09;100.00;100768.72;4965633;28;20004;-84
2023/08/27 05:07:07;;;;;;;;;;;;;;;13.14;100.00;100766.63;4942912;28;19956;-84
2023/08/27 05:09:52;;;;;;;;;;;;;;;13.19;100.00;100774.38;4954054;28;20016;-84
2023/08/27 05:12:38;;;;;;;;;;;;;;;13.24;100.00;100769.63;4952865;28;20063;-84
2023/08/27 05:15:24;;;;;;;;;;;;;;;13.28;100.00;100768.50;4966181;28;19930;-84
2023/08/27 05:18:09;;;;;;;;;;;;;;;13.31;100.00;100768.31;4966573;28;19933;-84
2023/08/27 05:20:55;;;;;;;;;;;;;;;13.36;100.00;100775.19;4966251;28;20040;-84
2023/08/27 05:23:40;;;;;;;;;;;;;;;13.36;100.00;100768.06;4957071;27;19960;-85
2023/08/27 05:26:26;;;;;;;;;;;;;;;13.39;100.00;100775.88;4967131;28;19930;-84
2023/08/27 05:29:12;;;;;;;;;;;;;;;13.42;100.00;100769.50;4966617;28;19980;-84
2023/08/27 05:31:57;;;;;;;;;;;;;;;13.46;100.00;100764.91;4968430;28;19930;-84
2023/08/27 05:34:43;;;;;;;;;;;;;;;13.47;100.00;100767.47;4957245;28;19941;-84
2023/08/27 05:37:28;;;;;;;;;;;;;;;13.50;100.00;100756.66;4981892;28;20379;-85
2023/08/27 05:40:14;;;;;;;;;;;;;;;13.55;100.00;100764.34;4967118;28;19926;-86
2023/08/27 05:43:00;;;;;;;;;;;;;;;13.58;100.00;100764.19;4966437;28;19934;-85
2023/08/27 05:45:45;;;;;;;;;;;;;;;13.61;100.00;100766.63;4967294;28;20062;-84
2023/08/27 05:48:31;;;;;;;;;;;;;;;13.64;100.00;100763.81;4967775;28;19930;-84
2023/08/27 05:51:16;;;;;;;;;;;;;;;13.67;100.00;100760.97;4962709;28;20021;-84
2023/08/27 05:54:03;;;;;;;;;;;;;;;13.70;100.00;100763.44;4952537;28;19933;-84
2023/08/27 05:56:49;;;;;;;;;;;;;;;13.75;100.00;100756.97;4964331;28;19930;-84
2023/08/27 05:59:34;;;;;;;;;;;;;;;13.78;100.00;100747.00;4956873;28;19930;-84
2023/08/27 06:02:20;;;;;;;;;;;;;;;13.83;100.00;100741.41;4966260;28;19937;-85
2023/08/27 06:05:06;;;;;;;;;;;;;;;13.88;100.00;100734.00;4967290;28;20706;-84
2023/08/27 06:07:51;;;;;;;;;;;;;;;13.93;100.00;100729.25;4967580;28;19933;-85
2023/08/27 06:10:37;;;;;;;;;;;;;;;13.99;100.00;100720.91;4968495;28;20024;-86
2023/08/27 06:13:23;;;;;;;;;;;;;;;14.04;100.00;100714.41;4947022;28;21531;-86
2023/08/27 06:16:08;;;;;;;;;;;;;;;14.12;100.00;100706.81;4966326;28;20043;-86
2023/08/27 06:18:54;;;;;;;;;;;;;;;14.17;100.00;100702.03;4952275;28;19934;-84
2023/08/27 06:21:47;;;;;;;;;;;;;;;14.22;100.00;100713.28;4945195;28;20058;-84
2023/08/27 06:24:36;;;;;;;;;;;;;;;14.26;100.00;100709.47;4959701;28;19938;-84
2023/08/27 06:27:22;;;;;;;;;;;;;;;14.31;100.00;100709.19;4938511;28;20057;-84
2023/08/27 06:30:08;;;;;;;;;;;;;;;14.38;100.00;100709.63;4950439;28;20021;-84
2023/08/27 06:32:54;;;;;;;;;;;;;;;14.41;100.00;100706.78;4963590;28;19930;-85
2023/08/27 06:35:40;;;;;;;;;;;;;;;14.48;100.00;100718.75;4952944;28;19934;-85
2023/08/27 06:38:26;;;;;;;;;;;;;;;14.54;100.00;100725.47;4967336;28;19991;-83
2023/08/27 06:41:12;;;;;;;;;;;;;;;14.56;100.00;100728.06;4942422;28;19934;-84
2023/08/27 06:43:57;;;;;;;;;;;;;;;14.59;100.00;100735.88;4950772;28;19976;-83
2023/08/27 06:46:47;;;;;;;;;;;;;;;14.61;100.00;100734.78;4969182;27;19973;-82
2023/08/27 06:49:36;;;;;;;;;;;;;;;14.66;100.00;100737.19;4963543;28;20038;-83
2023/08/27 06:52:22;;;;;;;;;;;;;;;14.72;100.00;100728.78;4952913;28;19967;-85
2023/08/27 06:55:07;;;;;;;;;;;;;;;14.80;100.00;100741.63;4959592;28;20195;-85
2023/08/27 06:57:54;;;;;;;;;;;;;;;14.88;100.00;100743.81;4951363;28;19933;-84
2023/08/27 07:00:44;;;;;;;;;;;;;;;14.95;100.00;100737.13;4948253;28;20026;-85
2023/08/27 07:03:30;;;;;;;;;;;;;;;15.01;100.00;100738.50;4964171;28;19930;-85
2023/08/27 07:06:17;;;;;;;;;;;;;;;15.05;100.00;100742.69;4963255;28;19930;-82
2023/08/27 07:09:04;;;;;;;;;;;;;;;15.07;100.00;100741.66;4942724;28;20025;-83
2023/08/27 07:11:50;;;;;;;;;;;;;;;15.11;100.00;100747.63;4969850;28;20329;-83
2023/08/27 07:14:35;;;;;;;;;;;;;;;15.10;100.00;100737.06;4987946;28;21886;-82
2023/08/27 07:17:21;;;;;;;;;;;;;;;15.07;100.00;100743.44;4951332;28;20345;-84
2023/08/27 07:20:11;;;;;;;;;;;;;;;15.05;100.00;100740.88;4966319;28;19933;-84
2023/08/27 07:22:56;;;;;;;;;;;;;;;15.12;100.00;100746.66;4940323;28;19935;-83
2023/08/27 07:25:42;;;;;;;;;;;;;;;15.22;100.00;100746.91;4963810;28;19937;-84
2023/08/27 07:28:28;;;;;;;;;;;;;;;15.33;100.00;100732.84;4960869;28;19936;-85
2023/08/27 07:31:14;;;;;;;;;;;;;;;15.43;100.00;100739.25;4964991;28;19968;-84
2023/08/27 07:33:59;;;;;;;;;;;;;;;15.53;100.00;100722.66;4955911;28;19991;-84
2023/08/27 07:36:45;;;;;;;;;;;;;;;15.64;100.00;100717.44;4985564;28;19966;-83
2023/08/27 07:39:30;;;;;;;;;;;;;;;15.79;100.00;100720.00;4962490;28;20273;-83
2023/08/27 07:42:16;;;;;;;;;;;;;;;15.96;100.00;100718.84;4956964;28;19974;-84
2023/08/27 07:45:02;;;;;;;;;;;;;;;16.10;100.00;100718.72;4947125;28;19926;-85
2023/08/27 07:47:47;;;;;;;;;;;;;;;16.22;100.00;100714.31;4957901;28;19934;-85
2023/08/27 07:50:33;;;;;;;;;;;;;;;16.36;100.00;100716.00;4971058;28;20416;-84
2023/08/27 07:53:19;;;;;;;;;;;;;;;16.49;100.00;100717.78;4969373;28;20191;-84
2023/08/27 07:56:09;;;;;;;;;;;;;;;16.58;100.00;100713.59;4953068;28;19930;-84
2023/08/27 07:58:55;;;;;;;;;;;;;;;16.70;100.00;100712.69;4954340;28;19947;-85
2023/08/27 08:01:41;;;;;;;;;;;;;;;16.81;100.00;100717.25;4963584;28;19969;-85
2023/08/27 08:04:29;;;;;;;;;;;;;;;16.94;100.00;100720.72;4951306;28;19930;-84
2023/08/27 08:07:15;;;;;;;;;;;;;;;17.09;100.00;100720.56;4965689;28;20308;-84
2023/08/27 08:10:01;;;;;;;;;;;;;;;17.22;100.00;100726.69;4953427;28;19944;-83
2023/08/27 08:12:47;;;;;;;;;;;;;;;17.32;100.00;100728.69;4966544;28;20429;-83
2023/08/27 08:15:33;;;;;;;;;;;;;;;17.35;100.00;100729.31;4956430;28;19925;-85
2023/08/27 08:18:19;;;;;;;;;;;;;;;17.37;100.00;100730.03;4965084;28;20498;-83
2023/08/27 08:21:05;;;;;;;;;;;;;;;17.44;100.00;100730.41;4961576;28;19933;-82
2023/08/27 08:23:50;;;;;;;;;;;;;;;17.59;100.00;100735.56;4934566;28;19930;-83
2023/08/27 08:26:36;;;;;;;;;;;;;;;17.73;100.00;100730.00;4964970;28;19930;-83
2023/08/27 08:29:22;;;;;;;;;;;;;;;17.90;100.00;100731.34;4957289;28;20400;-84
2023/08/27 08:32:07;;;;;;;;;;;;;;;17.95;100.00;100736.34;4961709;28;19968;-83
2023/08/27 08:34:54;;;;;;;;;;;;;;;18.06;100.00;100722.13;4937857;28;20252;-82
2023/08/27 08:37:39;;;;;;;;;;;;;;;18.12;100.00;100726.13;4950487;28;19933;-81
2023/08/27 08:40:25;;;;;;;;;;;;;;;18.04;100.00;100730.25;4950610;28;19926;-85
2023/08/27 08:43:18;;;;;;;;;;;;;;;17.99;100.00;100724.44;4955353;28;19944;-85
2023/08/27 08:46:04;;;;;;;;;;;;;;;17.94;100.00;100734.66;4966931;28;20895;-85
2023/08/27 08:48:51;;;;;;;;;;;;;;;17.97;100.00;100728.19;4947236;28;19928;-84
2023/08/27 08:51:38;;;;;;;;;;;;;;;18.00;100.00;100728.81;4965910;28;19930;-84
2023/08/27 08:54:24;;;;;;;;;;;;;;;17.94;100.00;100718.56;4950202;28;19937;-84
2023/08/27 08:57:10;;;;;;;;;;;;;;;17.97;100.00;100723.66;4952686;28;19972;-83
2023/08/27 08:59:55;;;;;;;;;;;;;;;18.11;100.00;100719.94;4948007;28;19926;-83
2023/08/27 09:02:41;;;;;;;;;;;;;;;18.37;100.00;100732.22;5011951;28;19970;-83
2023/08/27 09:05:27;;;;;;;;;;;;;;;18.68;100.00;100719.03;4955498;28;19936;-83
2023/08/27 09:08:12;;;;;;;;;;;;;;;18.90;100.00;100715.41;4946078;28;20303;-83
2023/08/27 09:10:58;;;;;;;;;;;;;;;18.95;100.00;100717.72;4962817;28;19930;-84
2023/08/27 09:13:44;;;;;;;;;;;;;;;19.00;100.00;100720.84;4965834;28;19965;-84
2023/08/27 09:16:30;;;;;;;;;;;;;;;18.92;100.00;100720.63;4946137;28;19973;-83
2023/08/27 09:19:15;;;;;;;;;;;;;;;18.70;100.00;100717.88;4957062;28;19926;-84
2023/08/27 09:22:01;;;;;;;;;;;;;;;18.55;100.00;100722.69;4944838;28;19934;-84
2023/08/27 09:24:47;;;;;;;;;;;;;;;18.50;100.00;100718.66;4956420;28;19979;-83
2023/08/27 09:27:33;;;;;;;;;;;;;;;18.52;100.00;100717.56;4995524;28;19961;-83
2023/08/27 09:30:19;;;;;;;;;;;;;;;18.49;100.00;100716.97;4954301;28;19934;-83
2023/08/27 09:33:05;;;;;;;;;;;;;;;18.38;100.00;100710.66;4967609;28;20530;-84
2023/08/27 09:35:50;;;;;;;;;;;;;;;18.26;100.00;100712.50;4935255;28;19930;-85
2023/08/27 09:38:36;;;;;;;;;;;;;;;18.26;100.00;100714.34;4956651;28;20297;-85
2023/08/27 09:41:22;;;;;;;;;;;;;;;18.20;100.00;100707.66;4968631;28;19944;-84
2023/08/27 09:44:08;;;;;;;;;;;;;;;18.09;100.00;100699.63;4945677;28;20042;-83
2023/08/27 09:46:59;;;;;;;;;;;;;;;17.98;100.00;100703.94;4963358;28;19948;-82
2023/08/27 09:49:45;;;;;;;;;;;;;;;17.92;100.00;100693.72;4953309;28;19932;-85
2023/08/27 09:52:31;;;;;;;;;;;;;;;17.85;100.00;100696.03;4953767;28;19930;-83
2023/08/27 09:55:16;;;;;;;;;;;;;;;17.76;100.00;100691.44;4960152;28;19930;-83
2023/08/27 09:58:05;;;;;;;;;;;;;;;17.69;100.00;100701.75;4969395;28;19934;-82
2023/08/27 10:00:57;;;;;;;;;;;;;;;17.65;100.00;100698.47;4962034;28;20673;-82
2023/08/27 10:03:42;;;;;;;;;;;;;;;17.63;100.00;100686.16;4973867;28;19926;-84
2023/08/27 10:06:33;;;;;;;;;;;;;;;17.57;100.00;100697.34;4954752;28;19930;-84
2023/08/27 10:09:20;;;;;;;;;;;;;;;17.48;100.00;100694.41;4953304;28;20900;-82
2023/08/27 10:12:05;;;;;;;;;;;;;;;17.45;100.00;100686.63;4959363;28;20300;-82
2023/08/27 10:14:51;;;;;;;;;;;;;;;17.45;100.00;100686.63;4966934;28;19981;-82
2023/08/27 10:17:36;;;;;;;;;;;;;;;17.47;100.00;100690.03;4939162;28;21603;-82
2023/08/27 10:20:22;;;;;;;;;;;;;;;17.46;100.00;100684.78;4953618;28;19926;-83
2023/08/27 10:23:10;;;;;;;;;;;;;;;17.43;100.00;100680.53;4952887;28;19934;-84
2023/08/27 10:25:55;;;;;;;;;;;;;;;17.42;100.00;100675.31;4943792;28;20479;-82
2023/08/27 10:28:41;;;;;;;;;;;;;;;17.38;100.00;100675.53;4955781;28;20415;-82
2023/08/27 10:31:27;;;;;;;;;;;;;;;17.01;100.00;100680.13;4952036;28;20428;-82
2023/08/27 10:34:12;;;;;;;;;;;;;;;16.51;100.00;100681.13;4940782;28;19952;-81
2023/08/27 10:36:59;;;;;;;;;;;;;;;16.06;100.00;100679.84;4970819;28;19995;-82
2023/08/27 10:39:45;;;;;;;;;;;;;;;15.63;100.00;100664.16;4966077;28;20028;-83
2023/08/27 10:42:32;;;;;;;;;;;;;;;15.32;100.00;100667.16;4973791;28;20389;-86
2023/08/27 10:45:18;;;;;;;;;;;;;;;15.13;100.00;100665.72;4936381;28;19935;-86
2023/08/27 10:48:08;;;;;;;;;;;;;;;15.04;100.00;100677.84;4967246;28;21551;-84
2023/08/27 10:50:56;;;;;;;;;;;;;;;14.95;100.00;100681.16;4943017;28;19933;-89
2023/08/27 10:53:49;;;;;;;;;;;;;;;14.75;100.00;100680.66;4951123;28;19926;-87
2023/08/27 10:56:38;;;;;;;;;;;;;;;14.55;100.00;100691.72;4969559;28;19930;-88
2023/08/27 10:59:30;;;;;;;;;;;;;;;14.25;100.00;100710.44;4945868;28;19930;-95
2023/08/27 11:02:16;;;;;;;;;;;;;;;14.01;100.00;100746.56;4948570;28;19980;-94
2023/08/27 11:05:05;;;;;;;;;;;;;;;13.67;100.00;100745.00;4963672;28;20007;-93
2023/08/27 11:07:51;;;;;;;;;;;;;;;13.25;100.00;100757.19;4938488;28;20021;-88
2023/08/27 11:10:38;;;;;;;;;;;;;;;13.09;100.00;100741.28;4960134;28;19945;-88
2023/08/27 11:13:37;;;;;;;;;;;;;;;12.97;100.00;100727.75;4963341;28;20388;-87
2023/08/27 11:16:23;;;;;;;;;;;;;;;12.89;100.00;100717.56;4955057;28;19953;-88
2023/08/27 11:19:12;;;;;;;;;;;;;;;12.87;100.00;100723.91;4950622;28;19955;-92
2023/08/27 11:22:04;;;;;;;;;;;;;;;12.71;100.00;100727.44;4965004;28;19943;-92
2023/08/27 11:24:52;;;;;;;;;;;;;;;12.58;100.00;100731.75;4951330;28;19930;-89
2023/08/27 11:27:38;;;;;;;;;;;;;;;12.54;100.00;100724.88;4937892;28;19941;-88
2023/08/27 11:30:25;;;;;;;;;;;;;;;12.52;100.00;100727.59;4940407;28;19925;-90
2023/08/27 11:33:11;;;;;;;;;;;;;;;12.57;100.00;100730.88;4967468;28;19952;-90
2023/08/27 11:35:57;;;;;;;;;;;;;;;12.59;100.00;100728.13;4936504;28;19930;-88
2023/08/27 11:38:43;;;;;;;;;;;;;;;12.66;100.00;100729.50;4943178;28;19969;-88
2023/08/27 11:41:36;;;;;;;;;;;;;;;12.77;100.00;100736.88;4952876;28;19926;-88
2023/08/27 11:44:21;;;;;;;;;;;;;;;12.88;100.00;100739.78;4936405;28;20206;-87
2023/08/27 11:47:10;;;;;;;;;;;;;;;13.02;100.00;100735.47;4930939;28;19938;-86
2023/08/27 11:49:58;;;;;;;;;;;;;;;13.29;100.00;100748.94;4957473;28;20454;-87
2023/08/27 11:52:44;;;;;;;;;;;;;;;13.57;100.00;100752.66;4947874;28;20272;-85
2023/08/27 11:55:30;;;;;;;;;;;;;;;13.80;100.00;100741.59;4937518;28;19988;-85
2023/08/27 11:58:16;;;;;;;;;;;;;;;13.97;100.00;100732.59;4937604;28;20944;-84
2023/08/27 12:01:02;;;;;;;;;;;;;;;14.10;100.00;100728.22;4956961;28;20013;-84
2023/08/27 12:03:48;;;;;;;;;;;;;;;14.26;100.00;100738.75;4937522;28;20090;-83
2023/08/27 12:06:34;;;;;;;;;;;;;;;14.48;100.00;100737.41;4939763;28;19982;-84
2023/08/27 12:09:24;;;;;;;;;;;;;;;14.72;100.00;100730.59;4955530;28;19960;-85
2023/08/27 12:12:09;;;;;;;;;;;;;;;14.76;100.00;100730.31;4939532;28;19993;-86
2023/08/27 12:14:56;;;;;;;;;;;;;;;14.81;100.00;100714.03;4949317;28;20034;-85
2023/08/27 12:17:44;;;;;;;;;;;;;;;14.86;100.00;100717.25;4941393;28;20411;-85
2023/08/27 12:20:31;;;;;;;;;;;;;;;14.85;100.00;100709.34;4949542;28;20028;-82
2023/08/27 12:23:17;;;;;;;;;;;;;;;14.80;100.00;100723.84;4957270;28;19930;-87
2023/08/27 12:26:02;;;;;;;;;;;;;;;14.80;100.00;100721.19;4951931;28;22078;-92
2023/08/27 12:28:52;;;;;;;;;;;;;;;14.74;100.00;100720.72;4966505;28;19930;-93
2023/08/27 12:31:47;;;;;;;;;;;;;;;14.71;100.00;100719.06;4963560;28;19933;-93
2023/08/27 12:34:34;;;;;;;;;;;;;;;14.85;100.00;100722.66;4951681;28;19926;-92
2023/08/27 12:37:21;;;;;;;;;;;;;;;14.97;100.00;100713.03;4959892;28;19926;-89
2023/08/27 12:40:08;;;;;;;;;;;;;;;15.17;100.00;100717.91;4944399;28;21401;-92
2023/08/27 12:42:53;;;;;;;;;;;;;;;15.32;100.00;100710.66;4936123;28;19958;-88
2023/08/27 12:45:42;;;;;;;;;;;;;;;15.40;100.00;100717.28;4957098;28;20015;-88
2023/08/27 12:48:28;;;;;;;;;;;;;;;15.43;100.00;100717.09;4952690;28;19929;-86
2023/08/27 12:51:14;;;;;;;;;;;;;;;15.29;100.00;100704.66;4932213;28;19940;-87
2023/08/27 12:54:00;;;;;;;;;;;;;;;15.37;100.00;100705.03;4940201;27;19930;-85
2023/08/27 12:56:46;;;;;;;;;;;;;;;15.55;100.00;100710.03;4943622;28;19976;-88
2023/08/27 12:59:31;;;;;;;;;;;;;;;15.75;100.00;100706.03;4944563;28;20000;-87
2023/08/27 13:02:17;;;;;;;;;;;;;;;15.95;100.00;100706.47;4961009;28;19935;-85
2023/08/27 13:05:05;;;;;;;;;;;;;;;16.09;100.00;100700.13;4940078;28;19934;-83
2023/08/27 13:07:51;;;;;;;;;;;;;;;16.15;100.00;100703.25;4973722;28;19929;-82
2023/08/27 13:10:37;;;;;;;;;;;;;;;16.16;100.00;100706.75;4965469;28;20440;-81
2023/08/27 13:13:23;;;;;;;;;;;;;;;16.25;100.00;100697.22;4943068;28;19930;-83
2023/08/27 13:16:08;;;;;;;;;;;;;;;16.28;100.00;100697.84;4947424;28;20053;-79
2023/08/27 13:18:55;;;;;;;;;;;;;;;16.37;100.00;100696.34;4943276;28;20007;-85
2023/08/27 13:21:44;;;;;;;;;;;;;;;16.40;100.00;100705.97;4945103;28;19926;-86
2023/08/27 13:24:30;;;;;;;;;;;;;;;16.36;100.00;100693.78;4944453;28;20915;-82
2023/08/27 13:27:16;;;;;;;;;;;;;;;16.37;100.00;100691.00;4960549;28;19941;-82
2023/08/27 13:30:02;;;;;;;;;;;;;;;16.45;100.00;100687.75;4929935;28;19930;-82
2023/08/27 13:32:48;;;;;;;;;;;;;;;16.49;100.00;100691.06;4954818;28;21196;-83
2023/08/27 13:35:34;;;;;;;;;;;;;;;16.46;100.00;100688.63;4959674;28;19941;-83
2023/08/27 13:38:19;;;;;;;;;;;;;;;16.41;100.00;100695.13;4943884;28;19930;-82
2023/08/27 13:41:05;;;;;;;;;;;;;;;16.36;100.00;100683.97;4942759;28;20387;-81
2023/08/27 13:43:51;;;;;;;;;;;;;;;16.34;100.00;100693.03;4939521;28;20280;-81
2023/08/27 13:46:36;;;;;;;;;;;;;;;16.35;100.00;100692.91;4963422;28;20012;-81
2023/08/27 13:49:22;;;;;;;;;;;;;;;16.33;100.00;100692.19;4960141;28;22023;-82
2023/08/27 13:52:09;;;;;;;;;;;;;;;16.33;100.00;100686.84;4944413;28;20247;-83
2023/08/27 13:54:55;;;;;;;;;;;;;;;16.43;100.00;100690.56;4943668;28;20982;-84
2023/08/27 13:57:41;;;;;;;;;;;;;;;16.52;100.00;100693.50;4959115;28;19937;-82
2023/08/27 14:00:28;;;;;;;;;;;;;;;16.59;100.00;100689.44;4949996;28;20411;-85
2023/08/27 14:03:14;;;;;;;;;;;;;;;16.73;100.00;100700.91;4948394;28;20040;-83
2023/08/27 14:05:59;;;;;;;;;;;;;;;16.83;100.00;100685.88;4939519;28;19938;-85